Time;durP1;ratioP1;P1;durP2;ratioP2;P2;SDS_P1;SDS_P2;PMS_P1;PMS_P2;Temp;Humidity;BMP_temperature;BMP_pressure;BME280_temperature;BME280_humidity;BME280_pressure;Samples;Min_cycle;Max_cycle;Signal;HPM_P1;HPM_P2
2022/09/13 00:00:48;;;;;;;2.25;1.95;;;20.50;99.90;;;;;;6155769;23;20031;-84
2022/09/13 00:03:14;;;;;;;2.00;1.80;;;20.50;99.90;;;;;;6155713;23;20535;-82
2022/09/13 00:05:40;;;;;;;1.90;1.55;;;20.50;99.90;;;;;;6155817;23;20001;-83
2022/09/13 00:08:06;;;;;;;1.52;1.50;;;20.40;99.90;;;;;;6155801;23;20307;-83
2022/09/13 00:10:37;;;;;;;2.78;1.33;;;20.40;99.90;;;;;;6154161;23;20016;-83
2022/09/13 00:13:07;;;;;;;3.65;1.20;;;20.40;99.90;;;;;;6155718;23;19998;-83
2022/09/13 00:15:34;;;;;;;3.90;1.55;;;20.40;99.90;;;;;;6155750;23;20733;-83
2022/09/13 00:18:00;;;;;;;1.50;1.50;;;20.40;99.90;;;;;;6154141;23;20051;-85
2022/09/13 00:20:26;;;;;;;3.65;1.50;;;20.30;99.90;;;;;;6155638;23;20424;-83
2022/09/13 00:22:52;;;;;;;1.40;1.35;;;20.30;99.90;;;;;;6155619;23;20005;-84
2022/09/13 00:25:18;;;;;;;1.88;1.75;;;20.20;99.90;;;;;;6155721;23;20334;-84
2022/09/13 00:27:44;;;;;;;1.52;1.42;;;20.20;99.90;;;;;;6154132;23;20075;-84
2022/09/13 00:30:11;;;;;;;1.92;1.33;;;20.20;99.90;;;;;;6178716;23;20048;-83
2022/09/13 00:32:37;;;;;;;1.33;1.23;;;20.20;99.90;;;;;;6155293;23;20438;-84
2022/09/13 00:35:04;;;;;;;2.17;1.42;;;20.20;99.90;;;;;;6155574;23;20337;-83
2022/09/13 00:37:32;;;;;;;1.92;1.30;;;20.20;99.90;;;;;;6154061;23;20006;-82
2022/09/13 00:39:58;;;;;;;0.98;0.98;;;20.10;99.90;;;;;;6155802;23;20009;-83
2022/09/13 00:42:25;;;;;;;2.10;1.05;;;20.00;99.90;;;;;;6155481;23;20006;-83
2022/09/13 00:45:01;;;;;;;1.10;1.02;;;20.00;99.90;;;;;;6153887;23;20041;-82
2022/09/13 00:47:36;;;;;;;3.47;1.08;;;20.00;99.90;;;;;;6155563;23;20072;-83
2022/09/13 00:50:14;;;;;;;1.27;1.27;;;19.90;99.90;;;;;;6155402;23;20005;-83
2022/09/13 00:52:43;;;;;;;2.80;0.98;;;19.90;99.90;;;;;;6155254;23;19997;-82
2022/09/13 00:55:19;;;;;;;1.17;1.17;;;19.80;99.90;;;;;;6153811;23;20014;-83
2022/09/13 00:57:45;;;;;;;0.95;0.82;;;19.80;99.90;;;;;;6154047;23;20334;-83
2022/09/13 01:00:13;;;;;;;1.00;1.00;;;19.80;99.90;;;;;;6155556;23;20131;-82
2022/09/13 01:02:41;;;;;;;1.00;1.00;;;19.80;99.90;;;;;;6155224;23;20055;-83
2022/09/13 01:05:08;;;;;;;0.90;0.90;;;19.70;99.90;;;;;;6153970;23;20037;-83
2022/09/13 01:07:34;;;;;;;2.08;1.00;;;19.80;99.90;;;;;;6155516;23;20072;-83
2022/09/13 01:10:03;;;;;;;0.93;0.93;;;19.70;99.90;;;;;;6153816;23;20036;-84
2022/09/13 01:12:45;;;;;;;2.20;1.02;;;19.70;99.90;;;;;;6153686;23;20029;-83
2022/09/13 01:15:11;;;;;;;2.80;1.73;;;19.70;99.90;;;;;;6155535;23;20005;-84
2022/09/13 01:17:38;;;;;;;1.35;1.27;;;19.80;99.90;;;;;;6157052;23;20002;-82
2022/09/13 01:20:07;;;;;;;1.50;1.00;;;19.80;99.90;;;;;;6157341;23;20006;-83
2022/09/13 01:22:39;;;;;;;1.23;1.13;;;19.90;99.90;;;;;;6155674;23;20009;-83
2022/09/13 01:25:19;;;;;;;1.45;1.00;;;19.80;99.90;;;;;;6155602;23;20018;-83
2022/09/13 01:28:03;;;;;;;2.65;0.88;;;19.80;99.90;;;;;;6155720;23;20568;-83
2022/09/13 01:31:11;;;;;;;4.78;1.13;;;19.70;99.90;;;;;;6156974;23;20327;-83
2022/09/13 01:33:43;;;;;;;1.13;0.95;;;19.70;99.90;;;;;;6157083;23;20006;-83
2022/09/13 01:36:30;;;;;;;0.77;0.77;;;19.60;99.90;;;;;;6155352;23;19998;-83
2022/09/13 01:39:04;;;;;;;1.30;1.20;;;19.70;99.90;;;;;;6155567;23;20041;-83
2022/09/13 01:41:36;;;;;;;1.20;1.00;;;19.70;99.90;;;;;;6155666;23;20005;-83
2022/09/13 01:44:02;;;;;;;1.10;1.10;;;19.70;99.90;;;;;;6157112;23;20001;-84
2022/09/13 01:46:49;;;;;;;1.27;1.10;;;19.60;99.90;;;;;;6155604;23;20382;-83
2022/09/13 01:49:46;;;;;;;1.02;0.93;;;19.60;99.90;;;;;;6156826;23;20052;-83
2022/09/13 01:52:24;;;;;;;1.17;0.93;;;19.60;99.90;;;;;;6155361;23;20241;-83
2022/09/13 01:55:01;;;;;;;1.35;0.80;;;19.50;99.90;;;;;;6155304;23;20006;-84
2022/09/13 01:57:26;;;;;;;1.77;1.05;;;19.50;99.90;;;;;;6155398;23;20005;-83
2022/09/13 02:00:08;;;;;;;2.47;0.98;;;19.50;99.90;;;;;;6155329;23;20338;-82
2022/09/13 02:02:38;;;;;;;1.58;1.08;;;19.50;99.90;;;;;;6156819;23;20001;-84
2022/09/13 02:05:37;;;;;;;5.28;0.90;;;19.50;99.90;;;;;;6156970;23;20060;-83
2022/09/13 02:08:16;;;;;;;1.88;0.90;;;19.50;99.90;;;;;;6156878;23;20002;-84
2022/09/13 02:10:47;;;;;;;1.65;1.20;;;19.40;99.90;;;;;;6156670;23;20006;-82
2022/09/13 02:13:18;;;;;;;3.50;0.85;;;19.50;99.90;;;;;;6156798;23;20065;-83
2022/09/13 02:15:50;;;;;;;0.68;0.68;;;19.50;99.90;;;;;;6156950;23;20002;-83
2022/09/13 02:18:32;;;;;;;1.02;0.73;;;19.50;99.90;;;;;;6155277;23;20005;-82
2022/09/13 02:21:06;;;;;;;0.80;0.80;;;19.40;99.90;;;;;;6156933;23;20318;-85
2022/09/13 02:23:48;;;;;;;1.95;1.02;;;19.40;99.90;;;;;;6156765;23;20005;-83
2022/09/13 02:26:15;;;;;;;2.25;0.98;;;19.40;99.90;;;;;;6156704;23;20033;-84
2022/09/13 02:28:47;;;;;;;0.88;0.88;;;19.40;99.90;;;;;;6156672;23;19998;-83
2022/09/13 02:31:18;;;;;;;2.92;0.95;;;19.40;99.90;;;;;;6155214;23;20064;-83
2022/09/13 02:33:50;;;;;;;1.00;1.00;;;19.50;99.90;;;;;;6156634;23;20009;-82
2022/09/13 02:36:24;;;;;;;1.00;0.90;;;19.50;99.90;;;;;;6156589;23;20457;-82
2022/09/13 02:38:58;;;;;;;1.27;1.05;;;19.50;99.90;;;;;;6155066;23;20009;-83
2022/09/13 02:41:48;;;;;;;2.13;1.00;;;19.40;99.90;;;;;;6156567;23;19994;-83
2022/09/13 02:44:24;;;;;;;1.00;0.88;;;19.40;99.90;;;;;;6156445;23;20068;-83
2022/09/13 02:47:21;;;;;;;1.13;1.13;;;19.40;99.90;;;;;;6156525;23;19997;-83
2022/09/13 02:50:17;;;;;;;1.35;0.88;;;19.40;99.90;;;;;;6156453;23;20033;-83
2022/09/13 02:53:04;;;;;;;0.68;0.68;;;19.40;99.90;;;;;;6156586;23;20441;-82
2022/09/13 02:55:36;;;;;;;0.98;0.98;;;19.40;99.90;;;;;;6156156;23;20367;-83
2022/09/13 02:58:05;;;;;;;;;;;19.40;99.90;;;;;;6157031;23;20001;-82
2022/09/13 03:00:31;;;;;;;0.73;0.73;;;19.40;99.90;;;;;;6154938;23;19897;-82
2022/09/13 03:03:01;;;;;;;0.95;0.88;;;19.40;99.90;;;;;;6156391;23;20015;-83
2022/09/13 03:05:27;;;;;;;1.77;0.75;;;19.40;99.90;;;;;;6156384;23;20001;-82
2022/09/13 03:07:53;;;;;;;1.58;1.10;;;19.40;99.90;;;;;;6156226;23;20001;-83
2022/09/13 03:10:22;;;;;;;1.00;1.00;;;19.50;99.90;;;;;;6156140;23;20438;-83
2022/09/13 03:13:18;;;;;;;0.82;0.70;;;19.50;99.90;;;;;;6156147;23;20378;-82
2022/09/13 03:16:12;;;;;;;1.20;1.08;;;19.40;99.90;;;;;;6156126;23;20001;-83
2022/09/13 03:18:51;;;;;;;0.73;0.73;;;19.30;99.90;;;;;;6150229;23;20338;-83
2022/09/13 03:21:32;;;;;;;1.75;0.75;;;19.30;99.90;;;;;;6156312;23;20001;-83
2022/09/13 03:24:27;;;;;;;2.38;0.70;;;19.30;99.90;;;;;;6156103;23;20006;-83
2022/09/13 03:27:34;;;;;;;4.80;1.20;;;19.30;99.90;;;;;;6154491;23;20434;-83
2022/09/13 03:30:09;;;;;;;1.15;1.15;;;19.30;99.90;;;;;;6154539;23;20107;-83
2022/09/13 03:32:59;;;;;;;0.80;0.75;;;19.30;99.90;;;;;;6155933;23;20001;-83
2022/09/13 03:35:43;;;;;;;1.73;1.15;;;19.30;99.90;;;;;;6156044;23;20025;-83
2022/09/13 03:38:16;;;;;;;1.00;1.00;;;19.30;99.90;;;;;;6155897;23;20071;-84
2022/09/13 03:40:49;;;;;;;1.13;1.13;;;19.30;99.90;;;;;;6154146;23;20013;-82
2022/09/13 03:43:17;;;;;;;1.67;1.27;;;19.30;99.90;;;;;;6155203;23;20088;-82
2022/09/13 03:45:50;;;;;;;0.98;0.80;;;19.40;99.90;;;;;;6153680;23;20013;-83
2022/09/13 03:48:17;;;;;;;1.60;1.50;;;19.40;99.90;;;;;;6155093;23;20029;-83
2022/09/13 03:50:46;;;;;;;1.27;1.27;;;19.40;99.90;;;;;;6155479;23;20001;-83
2022/09/13 03:53:19;;;;;;;0.85;0.85;;;19.40;99.90;;;;;;6155942;23;20004;-83
2022/09/13 03:55:45;;;;;;;1.90;0.80;;;19.40;99.90;;;;;;6154064;23;20017;-82
2022/09/13 03:58:18;;;;;;;1.48;1.13;;;19.40;99.90;;;;;;6179071;23;20006;-82
2022/09/13 04:00:45;;;;;;;0.90;0.90;;;19.30;99.90;;;;;;6155948;23;20334;-83
2022/09/13 04:03:13;;;;;;;1.38;1.10;;;19.40;99.90;;;;;;6155813;23;20048;-83
2022/09/13 04:05:39;;;;;;;1.08;1.08;;;19.40;99.90;;;;;;6155761;23;20036;-83
2022/09/13 04:08:06;;;;;;;5.55;1.33;;;19.30;99.90;;;;;;6154227;23;20014;-83
2022/09/13 04:10:36;;;;;;;1.85;1.33;;;19.30;99.90;;;;;;6155677;23;20080;-83
2022/09/13 04:13:03;;;;;;;1.52;1.42;;;19.30;99.90;;;;;;6155728;23;20001;-83
2022/09/13 04:15:32;;;;;;;1.25;1.15;;;19.20;99.90;;;;;;6154214;23;20084;-83
2022/09/13 04:17:58;;;;;;;1.70;1.35;;;19.20;99.90;;;;;;6155723;23;19998;-83
2022/09/13 04:20:24;;;;;;;3.03;1.40;;;19.20;99.90;;;;;;6155845;23;20016;-83
2022/09/13 04:22:56;;;;;;;1.50;1.40;;;19.30;99.90;;;;;;6153973;23;20009;-83
2022/09/13 04:25:22;;;;;;;2.40;1.60;;;19.30;99.90;;;;;;6155603;23;20016;-83
2022/09/13 04:27:54;;;;;;;1.58;1.48;;;19.30;99.90;;;;;;6155560;23;20008;-83
2022/09/13 04:30:20;;;;;;;2.03;1.13;;;19.30;99.90;;;;;;6155572;23;20009;-83
2022/09/13 04:32:46;;;;;;;1.50;1.40;;;19.30;99.90;;;;;;6155593;23;19997;-82
2022/09/13 04:35:13;;;;;;;3.10;1.85;;;19.20;99.90;;;;;;6155570;23;20001;-83
2022/09/13 04:37:39;;;;;;;1.88;1.75;;;19.20;99.90;;;;;;6155597;23;19997;-83
2022/09/13 04:40:07;;;;;;;2.47;1.52;;;19.30;99.90;;;;;;6155589;23;20012;-82
2022/09/13 04:42:32;;;;;;;1.75;1.63;;;19.20;99.90;;;;;;6155579;23;20077;-82
2022/09/13 04:44:58;;;;;;;1.98;1.88;;;19.20;99.90;;;;;;6155645;23;20334;-83
2022/09/13 04:47:24;;;;;;;4.30;1.77;;;19.20;99.90;;;;;;6155543;23;20036;-83
2022/09/13 04:49:50;;;;;;;2.47;1.70;;;19.20;99.90;;;;;;6153675;23;20013;-82
2022/09/13 04:52:15;;;;;;;1.80;1.70;;;19.20;99.90;;;;;;6156664;23;20008;-82
2022/09/13 04:54:41;;;;;;;1.67;1.52;;;19.20;99.90;;;;;;6155754;23;20006;-82
2022/09/13 04:57:07;;;;;;;1.83;1.73;;;19.20;99.90;;;;;;6157390;23;20040;-83
2022/09/13 04:59:32;;;;;;;1.73;1.63;;;19.20;99.90;;;;;;6156026;23;20071;-83
2022/09/13 05:01:58;;;;;;;2.83;1.80;;;19.20;99.90;;;;;;6157409;23;20033;-84
2022/09/13 05:04:24;;;;;;;2.20;2.10;;;19.10;99.90;;;;;;6157477;23;20029;-82
2022/09/13 05:06:49;;;;;;;2.22;2.10;;;19.20;99.90;;;;;;6155838;23;20005;-82
2022/09/13 05:09:15;;;;;;;3.95;2.20;;;19.20;99.90;;;;;;6155685;23;20603;-83
2022/09/13 05:11:42;;;;;;;2.22;2.13;;;19.20;99.90;;;;;;6157132;23;20024;-82
2022/09/13 05:14:11;;;;;;;2.53;1.45;;;19.20;99.90;;;;;;6155849;23;20009;-82
2022/09/13 05:16:37;;;;;;;2.58;2.03;;;19.20;99.90;;;;;;6157329;23;20032;-82
2022/09/13 05:19:02;;;;;;;2.20;2.00;;;19.20;99.90;;;;;;6157146;23;20037;-83
2022/09/13 05:21:29;;;;;;;2.25;2.05;;;19.20;99.90;;;;;;6157063;23;20504;-82
2022/09/13 05:23:56;;;;;;;2.78;2.30;;;19.20;99.90;;;;;;6155608;23;20002;-82
2022/09/13 05:26:24;;;;;;;1.92;1.75;;;19.20;99.90;;;;;;6155777;23;20006;-82
2022/09/13 05:28:50;;;;;;;2.75;2.17;;;19.30;99.90;;;;;;6157257;23;20033;-83
2022/09/13 05:31:19;;;;;;;2.45;2.25;;;19.20;99.90;;;;;;6155659;23;20468;-83
2022/09/13 05:33:47;;;;;;;2.10;1.90;;;19.30;99.90;;;;;;6157128;23;20005;-83
2022/09/13 05:36:13;;;;;;;3.55;2.17;;;19.30;99.90;;;;;;6155471;23;20005;-82
2022/09/13 05:38:39;;;;;;;2.05;1.95;;;19.40;99.90;;;;;;6157096;23;20612;-83
2022/09/13 05:41:05;;;;;;;3.17;2.42;;;19.40;99.90;;;;;;6157197;23;20350;-82
2022/09/13 05:43:35;;;;;;;3.75;2.40;;;19.30;99.90;;;;;;6155516;23;20426;-81
2022/09/13 05:46:05;;;;;;;4.80;2.50;;;19.40;99.90;;;;;;6157236;23;20001;-82
2022/09/13 05:48:32;;;;;;;3.10;2.90;;;19.40;99.90;;;;;;6156983;23;20005;-83
2022/09/13 05:51:09;;;;;;;3.42;2.95;;;19.60;99.90;;;;;;6156834;23;20009;-82
2022/09/13 05:53:36;;;;;;;3.40;2.25;;;19.70;99.90;;;;;;6156945;23;20330;-82
2022/09/13 05:56:02;;;;;;;5.28;3.03;;;19.70;99.90;;;;;;6155320;23;20018;-82
2022/09/13 05:58:28;;;;;;;4.85;2.85;;;19.80;99.90;;;;;;6155365;23;20005;-82
2022/09/13 06:00:55;;;;;;;3.85;2.47;;;19.90;99.90;;;;;;6156990;23;20006;-82
2022/09/13 06:03:24;;;;;;;7.25;2.63;;;19.90;99.90;;;;;;6154894;23;20084;-82
2022/09/13 06:05:55;;;;;;;6.18;3.22;;;19.90;99.90;;;;;;6156847;23;20005;-83
2022/09/13 06:08:21;;;;;;;6.80;2.30;;;19.90;99.90;;;;;;6156761;23;20002;-82
2022/09/13 06:10:56;;;;;;;4.95;3.10;;;19.90;99.90;;;;;;6155128;23;20446;-82
2022/09/13 06:13:23;;;;;;;4.55;3.17;;;20.00;99.90;;;;;;6156399;23;20004;-83
2022/09/13 06:15:49;;;;;;;4.20;3.70;;;20.10;99.90;;;;;;6156173;23;20028;-84
2022/09/13 06:18:16;;;;;;;3.58;2.97;;;20.20;99.90;;;;;;6156452;23;20002;-82
2022/09/13 06:20:42;;;;;;;5.35;2.67;;;20.30;99.90;;;;;;6156219;23;20006;-82
2022/09/13 06:23:08;;;;;;;2.80;2.70;;;20.40;99.90;;;;;;6154684;23;20504;-82
2022/09/13 06:25:34;;;;;;;4.57;3.15;;;20.40;99.90;;;;;;6154516;23;20013;-82
2022/09/13 06:27:59;;;;;;;2.70;2.50;;;20.50;99.90;;;;;;6155616;23;20125;-82
2022/09/13 06:30:25;;;;;;;2.25;2.05;;;20.50;99.90;;;;;;6155580;23;20557;-83
2022/09/13 06:32:51;;;;;;;2.50;2.40;;;20.50;99.90;;;;;;6155886;23;20426;-82
2022/09/13 06:35:16;;;;;;;2.72;2.38;;;20.40;99.90;;;;;;6156086;23;20006;-82
2022/09/13 06:37:43;;;;;;;2.85;2.40;;;20.40;99.90;;;;;;6156483;23;20060;-83
2022/09/13 06:40:09;;;;;;;2.55;2.20;;;20.40;99.90;;;;;;6154239;23;20013;-82
2022/09/13 06:42:35;;;;;;;3.53;3.22;;;20.40;99.90;;;;;;6154185;23;20013;-82
2022/09/13 06:45:01;;;;;;;2.20;2.03;;;20.40;99.90;;;;;;6155975;23;20001;-82
2022/09/13 06:47:27;;;;;;;2.50;2.30;;;20.50;99.90;;;;;;6155690;23;20005;-82
2022/09/13 06:49:53;;;;;;;2.85;2.60;;;20.60;99.90;;;;;;6154108;23;20016;-82
2022/09/13 06:52:18;;;;;;;4.20;3.08;;;20.60;99.90;;;;;;6155267;23;20076;-82
2022/09/13 06:54:44;;;;;;;7.82;2.78;;;20.70;99.90;;;;;;6155565;23;19998;-82
2022/09/13 06:57:10;;;;;;;4.78;2.40;;;20.80;99.90;;;;;;6155468;23;20033;-82
2022/09/13 06:59:36;;;;;;;6.82;2.60;;;20.80;99.90;;;;;;6155286;23;20001;-83
2022/09/13 07:02:02;;;;;;;1.92;1.83;;;20.80;99.90;;;;;;6178785;23;20052;-82
2022/09/13 07:04:30;;;;;;;5.95;2.60;;;20.90;99.90;;;;;;6155534;23;20442;-82
2022/09/13 07:06:57;;;;;;;6.03;2.47;;;20.90;99.90;;;;;;6154011;23;20021;-83
2022/09/13 07:09:23;;;;;;;2.03;1.90;;;21.00;99.90;;;;;;6153764;23;20450;-83
2022/09/13 07:11:51;;;;;;;3.65;2.30;;;21.10;99.90;;;;;;6153827;23;20465;-83
2022/09/13 07:14:19;;;;;;;3.80;1.80;;;21.20;99.90;;;;;;6153477;23;20001;-83
2022/09/13 07:16:45;;;;;;;3.10;1.92;;;21.20;99.90;;;;;;6155473;23;20009;-83
2022/09/13 07:19:21;;;;;;;2.00;1.90;;;21.20;99.90;;;;;;6156027;23;20008;-82
2022/09/13 07:21:48;;;;;;;6.90;2.40;;;21.20;99.90;;;;;;6154353;23;20012;-83
2022/09/13 07:24:15;;;;;;;4.53;2.20;;;21.20;99.90;;;;;;6156231;23;20334;-82
2022/09/13 07:26:41;;;;;;;4.68;2.40;;;21.30;99.90;;;;;;6155847;23;20449;-83
2022/09/13 07:29:10;;;;;;;3.78;1.98;;;21.30;99.90;;;;;;6154286;23;20001;-82
2022/09/13 07:31:38;;;;;;;2.38;2.08;;;21.30;99.90;;;;;;6154491;23;20076;-82
2022/09/13 07:34:07;;;;;;;2.45;2.25;;;21.30;99.90;;;;;;6156039;23;20004;-83
2022/09/13 07:36:34;;;;;;;1.58;1.48;;;21.30;99.90;;;;;;6156141;23;20028;-83
2022/09/13 07:39:01;;;;;;;1.60;1.50;;;21.40;99.90;;;;;;6156040;23;20008;-83
2022/09/13 07:41:28;;;;;;;2.10;1.70;;;21.40;99.90;;;;;;6155752;23;20004;-82
2022/09/13 07:43:55;;;;;;;1.67;1.58;;;21.40;99.90;;;;;;6155192;23;20080;-82
2022/09/13 07:46:23;;;;;;;1.35;1.13;;;21.40;99.90;;;;;;6154680;23;20088;-82
2022/09/13 07:48:52;;;;;;;1.95;1.30;;;21.40;99.90;;;;;;6154361;23;20561;-83
2022/09/13 07:51:20;;;;;;;2.08;1.23;;;21.40;99.90;;;;;;6154588;23;20009;-82
2022/09/13 07:53:47;;;;;;;1.27;1.10;;;21.50;99.90;;;;;;6155889;23;19997;-82
2022/09/13 07:56:14;;;;;;;2.25;0.82;;;21.50;99.90;;;;;;6154023;23;20045;-83
2022/09/13 07:58:42;;;;;;;1.75;1.10;;;21.50;99.90;;;;;;6155908;23;20434;-83
2022/09/13 08:01:18;;;;;;;1.70;1.10;;;21.50;99.90;;;;;;6154047;23;20056;-82
2022/09/13 08:03:53;;;;;;;1.42;1.00;;;21.60;99.90;;;;;;6155796;23;20254;-83
2022/09/13 08:06:20;;;;;;;2.05;1.33;;;21.60;99.90;;;;;;6154317;23;20036;-82
2022/09/13 08:08:45;;;;;;;2.10;1.17;;;21.60;99.90;;;;;;6179014;23;20013;-83
2022/09/13 08:11:17;;;;;;;1.63;1.35;;;21.60;99.90;;;;;;6155490;23;20010;-82
2022/09/13 08:13:44;;;;;;;2.97;1.45;;;21.70;99.90;;;;;;6155759;23;20028;-83
2022/09/13 08:16:12;;;;;;;1.95;1.83;;;21.70;99.90;;;;;;6155667;23;20022;-82
2022/09/13 08:18:46;;;;;;;2.10;1.77;;;21.70;99.90;;;;;;6155761;23;20005;-82
2022/09/13 08:21:12;;;;;;;2.40;2.20;;;21.70;99.90;;;;;;6155605;23;20005;-82
2022/09/13 08:23:39;;;;;;;2.45;2.25;;;21.80;99.90;;;;;;6154185;23;20339;-83
2022/09/13 08:26:07;;;;;;;2.47;2.28;;;21.70;99.90;;;;;;6155559;23;20033;-83
2022/09/13 08:28:34;;;;;;;2.25;2.05;;;21.80;99.90;;;;;;6155662;23;20095;-83
2022/09/13 08:31:08;;;;;;;5.57;1.88;;;21.80;99.90;;;;;;6155389;23;20056;-83
2022/09/13 08:33:34;;;;;;;5.78;2.08;;;21.80;99.90;;;;;;6178210;23;20022;-83
2022/09/13 08:36:01;;;;;;;3.58;1.58;;;21.90;99.90;;;;;;6155477;23;20021;-84
2022/09/13 08:38:28;;;;;;;1.50;1.40;;;21.90;99.90;;;;;;6155569;23;20473;-83
2022/09/13 08:41:00;;;;;;;2.83;1.50;;;22.00;99.90;;;;;;6155553;23;20036;-83
2022/09/13 08:43:28;;;;;;;2.97;1.52;;;22.00;99.90;;;;;;6155473;23;20052;-83
2022/09/13 08:46:03;;;;;;;5.22;1.65;;;22.00;99.90;;;;;;6155562;23;20419;-83
2022/09/13 08:48:35;;;;;;;1.50;1.42;;;22.00;99.90;;;;;;6178738;23;20037;-83
2022/09/13 08:51:06;;;;;;;1.70;1.60;;;22.00;99.90;;;;;;6155455;23;20028;-83
2022/09/13 08:53:46;;;;;;;3.30;2.15;;;22.10;99.90;;;;;;6155611;23;20005;-83
2022/09/13 08:56:21;;;;;;;2.15;1.90;;;22.20;99.90;;;;;;6155287;23;20009;-83
2022/09/13 08:58:49;;;;;;;5.47;1.55;;;22.20;99.90;;;;;;6155283;23;20392;-82
2022/09/13 09:01:38;;;;;;;5.70;1.58;;;22.20;99.90;;;;;;6155427;23;20010;-83
2022/09/13 09:04:26;;;;;;;5.32;1.58;;;22.30;99.90;;;;;;6178715;23;20412;-83
2022/09/13 09:07:07;;;;;;;1.85;1.58;;;22.30;99.90;;;;;;6153945;23;20005;-83
2022/09/13 09:09:46;;;;;;;1.30;1.20;;;22.30;99.90;;;;;;6155342;23;20008;-83
2022/09/13 09:12:40;;;;;;;4.53;1.85;;;22.40;99.90;;;;;;6155378;23;19997;-83
2022/09/13 09:15:21;;;;;;;2.47;1.50;;;22.40;99.90;;;;;;6150641;23;20001;-83
2022/09/13 09:17:55;;;;;;;1.90;1.60;;;22.30;99.90;;;;;;6153806;23;20005;-83
2022/09/13 09:20:31;;;;;;;2.80;2.15;;;22.30;99.90;;;;;;6155449;23;20382;-83
2022/09/13 09:23:01;;;;;;;5.82;1.90;;;22.40;99.90;;;;;;6153787;23;20033;-83
2022/09/13 09:25:27;;;;;;;3.45;1.42;;;22.40;99.90;;;;;;6153860;23;20006;-83
2022/09/13 09:27:53;;;;;;;2.15;1.75;;;22.40;99.90;;;;;;6153867;23;20013;-83
2022/09/13 09:30:20;;;;;;;6.93;2.30;;;22.50;99.90;;;;;;6178492;23;20341;-83
2022/09/13 09:33:19;;;;;;;4.32;2.45;;;22.60;99.90;;;;;;6155262;23;20464;-83
2022/09/13 09:35:50;;;;;;;4.35;1.70;;;22.70;99.90;;;;;;6155286;23;20438;-83
2022/09/13 09:38:31;;;;;;;2.70;2.13;;;22.70;99.90;;;;;;6154992;23;20002;-82
2022/09/13 09:41:05;;;;;;;2.85;2.28;;;22.80;99.90;;;;;;6156996;23;20006;-83
2022/09/13 09:43:47;;;;;;;2.08;1.90;;;22.90;99.90;;;;;;6157081;23;20012;-83
2022/09/13 09:46:14;;;;;;;2.65;2.22;;;23.00;99.90;;;;;;6156997;23;20077;-82
2022/09/13 09:48:53;;;;;;;4.53;2.20;;;23.00;99.90;;;;;;6157129;23;20001;-83
2022/09/13 09:51:21;;;;;;;4.22;2.42;;;23.10;99.90;;;;;;6156768;23;20006;-83
2022/09/13 09:53:51;;;;;;;4.10;2.60;;;23.10;99.90;;;;;;6157153;23;20001;-83
2022/09/13 09:56:23;;;;;;;3.25;2.08;;;23.10;99.90;;;;;;6156855;23;20024;-84
2022/09/13 09:58:49;;;;;;;;;;;23.20;99.90;;;;;;6180770;23;20018;-83
2022/09/13 10:01:33;;;;;;;4.07;2.67;;;23.20;99.90;;;;;;6156824;23;20285;-83
2022/09/13 10:04:11;;;;;;;3.95;2.22;;;23.20;99.90;;;;;;6156977;23;20029;-83
2022/09/13 10:06:39;;;;;;;3.80;2.10;;;23.20;99.90;;;;;;6155408;23;20094;-84
2022/09/13 10:09:18;;;;;;;3.25;2.40;;;23.30;99.90;;;;;;6156601;23;20012;-83
2022/09/13 10:11:43;;;;;;;4.03;2.83;;;23.30;99.90;;;;;;6156787;23;20068;-83
2022/09/13 10:14:34;;;;;;;6.80;2.88;;;23.30;99.90;;;;;;6155308;23;20025;-83
2022/09/13 10:17:22;;;;;;;2.38;2.13;;;23.40;99.90;;;;;;6156711;23;20024;-83
2022/09/13 10:20:03;;;;;;;2.70;2.60;;;23.40;99.90;;;;;;6156824;23;20001;-83
2022/09/13 10:22:30;;;;;;;5.43;3.38;;;23.40;99.90;;;;;;6156269;23;20010;-84
2022/09/13 10:25:12;;;;;;;3.13;2.65;;;23.50;99.90;;;;;;6155927;23;20374;-84
2022/09/13 10:27:42;;;;;;;4.55;3.58;;;23.60;99.90;;;;;;6155675;23;20057;-83
2022/09/13 10:30:31;;;;;;;10.20;4.00;;;23.60;99.90;;;;;;6154207;23;20044;-83
2022/09/13 10:32:57;;;;;;;4.32;3.92;;;23.70;99.90;;;;;;6156553;23;20001;-83
2022/09/13 10:35:23;;;;;;;4.40;3.47;;;23.70;99.90;;;;;;6156670;23;20002;-83
2022/09/13 10:37:50;;;;;;;3.90;3.40;;;23.80;99.90;;;;;;6156773;23;20008;-83
2022/09/13 10:40:25;;;;;;;4.75;4.30;;;23.80;99.90;;;;;;6156575;23;20040;-83
2022/09/13 10:42:58;;;;;;;5.90;3.63;;;23.80;99.90;;;;;;6153868;23;20012;-78
2022/09/13 10:45:29;;;;;;;5.28;3.72;;;23.80;99.90;;;;;;6153561;23;20249;-78
2022/09/13 10:48:03;;;;;;;5.65;3.90;;;23.80;99.90;;;;;;6150979;23;20063;-77
2022/09/13 10:50:34;;;;;;;4.07;3.67;;;23.90;99.90;;;;;;6151480;23;20091;-77
2022/09/13 10:53:04;;;;;;;4.47;4.07;;;24.20;99.90;;;;;;6153092;23;20005;-78
2022/09/13 10:55:39;;;;;;;5.68;4.00;;;24.20;99.90;;;;;;6152899;23;20025;-77
2022/09/13 10:58:05;;;;;;;4.65;3.92;;;24.40;99.90;;;;;;6153237;23;20323;-77
2022/09/13 11:00:34;;;;;;;6.75;5.30;;;24.40;99.90;;;;;;6154600;23;20092;-77
2022/09/13 11:03:22;;;;;;;6.85;4.75;;;24.40;99.90;;;;;;6154609;23;20028;-77
2022/09/13 11:06:09;;;;;;;5.15;4.65;;;24.50;99.90;;;;;;6153060;23;20016;-77
2022/09/13 11:08:59;;;;;;;5.22;4.82;;;24.40;99.90;;;;;;6153084;23;20001;-77
2022/09/13 11:11:40;;;;;;;5.82;3.72;;;24.40;99.90;;;;;;6154591;23;20012;-77
2022/09/13 11:14:24;;;;;;;7.38;5.57;;;24.40;99.90;;;;;;6154639;23;20497;-77
2022/09/13 11:17:07;;;;;;;4.72;4.25;;;24.40;99.90;;;;;;6154502;23;20080;-78
2022/09/13 11:19:53;;;;;;;4.82;4.25;;;24.50;99.90;;;;;;6154629;23;20950;-77
2022/09/13 11:22:31;;;;;;;6.35;4.38;;;24.60;99.90;;;;;;6154508;23;20033;-77
2022/09/13 11:25:24;;;;;;;7.25;4.90;;;24.70;99.90;;;;;;6154419;23;20048;-77
2022/09/13 11:28:10;;;;;;;7.47;4.15;;;24.80;99.90;;;;;;6154575;23;20033;-77
2022/09/13 11:30:50;;;;;;;5.47;4.97;;;24.80;99.90;;;;;;6123504;23;20080;-77
2022/09/13 11:33:32;;;;;;;5.18;4.68;;;24.90;99.90;;;;;;6154354;23;20434;-77
2022/09/13 11:36:46;;;;;;;4.45;4.07;;;24.90;99.90;;;;;;6152701;23;20005;-77
2022/09/13 11:39:49;;;;;;;4.22;3.83;;;25.00;99.90;;;;;;6140773;23;20070;-77
2022/09/13 11:42:28;;;;;;;4.35;3.95;;;25.10;99.90;;;;;;6153853;23;20005;-77
2022/09/13 11:45:05;;;;;;;6.07;4.10;;;25.10;99.90;;;;;;6154232;23;20005;-77
2022/09/13 11:47:47;;;;;;;4.20;3.80;;;25.20;99.90;;;;;;6152518;23;20009;-77
2022/09/13 11:50:24;;;;;;;;;;;25.20;99.90;;;;;;6154719;23;20319;-77
2022/09/13 11:53:32;;;;;;;5.15;3.63;;;25.40;99.90;;;;;;6154120;23;19928;-77
2022/09/13 11:56:07;;;;;;;3.72;3.08;;;25.50;99.90;;;;;;6154114;23;20341;-77
2022/09/13 11:58:51;;;;;;;6.45;3.88;;;25.60;99.90;;;;;;6154062;23;20072;-77
2022/09/13 12:01:24;;;;;;;5.00;4.50;;;25.60;99.90;;;;;;6153844;23;20017;-77
2022/09/13 12:04:20;;;;;;;7.38;4.35;;;25.60;99.90;;;;;;6154011;23;20080;-77
2022/09/13 12:07:03;;;;;;;3.67;3.38;;;25.50;99.90;;;;;;6152528;23;20083;-77
2022/09/13 12:09:37;;;;;;;3.10;2.90;;;25.60;99.90;;;;;;6152470;23;20006;-77
2022/09/13 12:12:09;;;;;;;3.78;2.55;;;25.70;99.90;;;;;;6154034;23;19998;-77
2022/09/13 12:14:58;;;;;;;6.70;3.58;;;25.80;99.90;;;;;;6153626;23;20010;-77
2022/09/13 12:17:29;;;;;;;7.22;3.65;;;25.90;99.90;;;;;;6154092;23;20002;-77
2022/09/13 12:19:59;;;;;;;3.50;3.30;;;26.00;99.90;;;;;;6154027;23;20013;-77
2022/09/13 12:22:29;;;;;;;5.43;4.10;;;26.00;99.90;;;;;;6152320;23;20240;-78
2022/09/13 12:25:04;;;;;;;3.83;3.50;;;26.00;99.90;;;;;;6152403;23;20469;-77
2022/09/13 12:27:45;;;;;;;6.65;4.18;;;26.00;99.90;;;;;;6153786;23;20002;-77
2022/09/13 12:30:15;;;;;;;5.47;4.18;;;26.10;99.90;;;;;;6153964;23;20430;-78
2022/09/13 12:32:46;;;;;;;3.45;2.63;;;26.10;99.90;;;;;;6153929;23;19997;-77
2022/09/13 12:35:18;;;;;;;5.38;2.95;;;26.20;99.90;;;;;;6152486;23;20055;-77
2022/09/13 12:38:02;;;;;;;;;;;26.30;99.90;;;;;;6154408;23;20004;-77
2022/09/13 12:40:56;;;;;;;5.43;2.83;;;26.30;99.90;;;;;;6152321;23;19908;-77
2022/09/13 12:43:53;;;;;;;4.13;3.75;;;26.30;99.90;;;;;;6153742;23;20016;-77
2022/09/13 12:46:28;;;;;;;3.17;2.55;;;26.30;99.90;;;;;;6153870;23;20005;-78
2022/09/13 12:49:06;;;;;;;3.72;3.38;;;26.40;99.90;;;;;;6153770;23;20009;-78
2022/09/13 12:51:31;;;;;;;3.10;2.50;;;26.40;99.90;;;;;;6153598;23;20453;-77
2022/09/13 12:54:31;;;;;;;3.17;2.40;;;26.40;99.90;;;;;;6153723;23;20002;-77
2022/09/13 12:57:23;;;;;;;4.68;2.53;;;26.60;99.90;;;;;;6153494;23;20386;-77
2022/09/13 12:59:51;;;;;;;3.67;3.38;;;26.70;99.90;;;;;;6130149;23;20010;-77
2022/09/13 13:02:29;;;;;;;7.00;2.53;;;26.70;99.90;;;;;;6152056;23;20029;-77
2022/09/13 13:04:59;;;;;;;5.75;2.55;;;26.80;99.90;;;;;;6153923;23;20489;-77
2022/09/13 13:07:27;;;;;;;3.30;3.00;;;26.80;99.90;;;;;;6152283;23;20020;-77
2022/09/13 13:09:55;;;;;;;3.60;3.30;;;26.90;99.90;;;;;;6153708;23;20009;-77
2022/09/13 13:12:37;;;;;;;6.38;3.28;;;26.80;99.90;;;;;;6154103;23;19997;-78
2022/09/13 13:15:26;;;;;;;;;;;26.80;99.90;;;;;;6154638;23;20017;-77
2022/09/13 13:17:53;;;;;;;2.50;2.40;;;26.80;99.90;;;;;;6153803;23;19911;-77